Time;durP1;ratioP1;P1;durP2;ratioP2;P2;SDS_P1;SDS_P2;PMS_P1;PMS_P2;Temp;Humidity;BMP_temperature;BMP_pressure;BME280_temperature;BME280_humidity;BME280_pressure;Samples;Min_cycle;Max_cycle;Signal;HPM_P1;HPM_P2
2022/08/30 00:03:26;;;;;;;16.77;15.10;;;26.70;64.00;;;;;;4740052;55;21542;-32
2022/08/30 00:08:27;;;;;;;16.95;15.25;;;26.70;64.00;;;;;;4773360;55;21016;-29
2022/08/30 00:13:28;;;;;;;16.45;14.85;;;26.60;63.90;;;;;;4749345;55;21043;-29
2022/08/30 00:18:29;;;;;;;16.15;14.57;;;26.70;64.00;;;;;;4737218;55;22161;-27
2022/08/30 00:23:31;;;;;;;16.80;15.20;;;26.60;63.90;;;;;;4803458;55;20959;-31
2022/08/30 00:28:32;;;;;;;15.57;14.07;;;26.70;63.90;;;;;;4736219;59;21552;-33
2022/08/30 00:33:33;;;;;;;16.25;14.75;;;26.60;63.90;;;;;;4764003;55;21094;-35
2022/08/30 00:38:34;;;;;;;16.65;15.05;;;26.60;63.90;;;;;;4747343;55;21501;-27
2022/08/30 00:43:35;;;;;;;15.45;14.05;;;26.60;63.90;;;;;;4747683;55;20988;-37
2022/08/30 00:48:43;;;;;;;15.57;14.10;;;26.60;63.80;;;;;;4805523;55;21423;-26
2022/08/30 00:53:49;;;;;;;15.52;14.05;;;26.60;63.90;;;;;;4748171;55;21039;-25
2022/08/30 00:58:55;;;;;;;15.55;13.82;;;26.60;63.80;;;;;;4735678;59;21093;-31
2022/08/30 01:03:56;;;;;;;15.40;13.90;;;26.60;63.80;;;;;;4761794;55;21047;-32
2022/08/30 01:08:57;;;;;;;15.63;14.13;;;26.60;63.80;;;;;;4812494;55;21095;-37
2022/08/30 01:14:00;;;;;;;15.75;14.35;;;26.60;63.80;;;;;;4742120;55;21493;-26
2022/08/30 01:19:01;;;;;;;14.07;12.70;;;26.60;63.80;;;;;;4769532;55;21008;-36
2022/08/30 01:24:03;;;;;;;15.57;14.15;;;26.60;63.80;;;;;;4737617;55;21070;-37
2022/08/30 01:29:07;;;;;;;15.50;14.00;;;26.60;63.80;;;;;;4817673;55;21101;-36
2022/08/30 01:34:08;;;;;;;14.75;13.45;;;26.60;63.80;;;;;;4763210;55;20975;-31
2022/08/30 01:39:11;;;;;;;15.40;13.98;;;26.60;63.80;;;;;;4737893;55;21541;-26
2022/08/30 01:44:15;;;;;;;14.30;13.00;;;26.60;63.80;;;;;;4736762;59;21004;-37
2022/08/30 01:49:18;;;;;;;14.48;13.07;;;26.60;63.80;;;;;;4741750;55;21023;-26
2022/08/30 01:54:19;;;;;;;15.27;13.70;;;26.60;63.80;;;;;;4736583;59;20988;-33
2022/08/30 01:59:19;;;;;;;14.10;12.80;;;26.60;63.80;;;;;;4747967;55;21098;-36
2022/08/30 02:04:20;;;;;;;14.23;12.93;;;26.60;63.80;;;;;;4745378;55;21304;-28
2022/08/30 02:09:21;;;;;;;14.40;13.00;;;26.60;63.80;;;;;;4745035;55;21038;-25
2022/08/30 02:14:22;;;;;;;14.10;12.90;;;26.60;63.80;;;;;;4750039;55;21477;-32
2022/08/30 02:19:23;;;;;;;13.82;12.63;;;26.60;63.80;;;;;;4778823;55;21031;-28
2022/08/30 02:24:24;;;;;;;14.30;12.98;;;26.60;63.80;;;;;;4737518;55;21007;-31
2022/08/30 02:29:26;;;;;;;14.05;12.70;;;26.60;63.80;;;;;;4736900;59;20975;-32
2022/08/30 02:34:27;;;;;;;13.93;12.65;;;26.60;63.80;;;;;;4738160;55;21859;-26
2022/08/30 02:39:28;;;;;;;13.40;12.20;;;26.60;63.80;;;;;;4756832;55;21086;-31
2022/08/30 02:44:29;;;;;;;13.73;12.43;;;26.60;63.80;;;;;;4736420;59;20996;-35
2022/08/30 02:49:30;;;;;;;14.32;12.93;;;26.60;63.80;;;;;;4796930;55;21035;-32
2022/08/30 02:54:32;;;;;;;14.15;12.75;;;26.60;63.70;;;;;;4736494;59;21007;-31
2022/08/30 02:59:33;;;;;;;14.68;12.95;;;26.60;63.70;;;;;;4756454;55;21545;-36
2022/08/30 03:04:33;;;;;;;14.35;13.05;;;26.60;63.80;;;;;;4755222;55;21225;-26
2022/08/30 03:09:35;;;;;;;14.18;12.80;;;26.60;63.80;;;;;;4737535;59;21003;-30
2022/08/30 03:14:38;;;;;;;12.68;11.57;;;26.60;63.70;;;;;;4815664;55;21051;-27
2022/08/30 03:19:38;;;;;;;13.27;12.02;;;26.50;63.70;;;;;;4758623;55;21070;-28
2022/08/30 03:24:39;;;;;;;13.30;12.02;;;26.60;63.60;;;;;;4736660;59;21103;-28
2022/08/30 03:29:40;;;;;;;12.68;11.48;;;26.60;63.70;;;;;;4771174;55;21062;-29
2022/08/30 03:34:41;;;;;;;13.43;12.18;;;26.60;63.60;;;;;;4736104;59;21043;-37
2022/08/30 03:39:44;;;;;;;12.68;11.48;;;26.60;63.60;;;;;;4781812;55;21240;-34
2022/08/30 03:44:45;;;;;;;13.25;12.05;;;26.60;63.60;;;;;;4756001;55;21497;-32
2022/08/30 03:49:46;;;;;;;12.85;11.65;;;26.60;63.60;;;;;;4765867;55;21083;-28
2022/08/30 03:54:47;;;;;;;13.55;12.25;;;26.50;63.40;;;;;;4780335;55;21063;-27
2022/08/30 03:59:48;;;;;;;12.40;11.30;;;26.50;63.50;;;;;;4734995;59;21023;-33
2022/08/30 04:04:49;;;;;;;11.90;10.80;;;26.50;63.40;;;;;;4752405;55;21146;-34
2022/08/30 04:09:50;;;;;;;13.07;11.82;;;26.50;63.50;;;;;;4773073;55;21538;-27
2022/08/30 04:14:51;;;;;;;12.55;11.35;;;26.50;63.50;;;;;;4736190;59;21028;-34
2022/08/30 04:19:52;;;;;;;12.73;11.60;;;26.60;63.60;;;;;;4752423;55;21010;-30
2022/08/30 04:24:53;;;;;;;12.23;11.12;;;26.50;63.50;;;;;;4778279;55;21519;-34
2022/08/30 04:29:55;;;;;;;13.38;12.18;;;26.50;63.40;;;;;;4744107;55;21173;-29
2022/08/30 04:34:59;;;;;;;11.95;10.80;;;26.50;63.40;;;;;;4736120;59;22375;-29
2022/08/30 04:39:59;;;;;;;12.77;11.57;;;26.50;63.30;;;;;;4737113;59;21019;-32
2022/08/30 04:45:05;;;;;;;12.27;11.07;;;26.50;63.30;;;;;;4746948;55;21067;-33
2022/08/30 04:50:08;;;;;;;12.55;11.30;;;26.50;63.30;;;;;;4736504;59;21528;-28
2022/08/30 04:55:10;;;;;;;12.10;10.80;;;26.50;63.20;;;;;;4737960;55;20960;-36
2022/08/30 05:00:12;;;;;;;11.55;10.35;;;26.50;63.20;;;;;;4781133;55;20979;-32
2022/08/30 05:10:42;;;;;;;12.05;10.85;;;26.50;63.20;;;;;;4736118;55;21071;-34
2022/08/30 05:15:43;;;;;;;11.57;10.32;;;26.50;63.10;;;;;;4736665;55;21612;-37
2022/08/30 05:20:44;;;;;;;11.80;10.70;;;26.50;63.20;;;;;;4751194;55;20979;-31
2022/08/30 05:25:45;;;;;;;12.45;11.18;;;26.50;63.10;;;;;;4742326;55;20999;-28
2022/08/30 05:30:46;;;;;;;12.32;11.10;;;26.50;63.10;;;;;;4742561;55;21450;-27
2022/08/30 05:35:47;;;;;;;11.82;10.73;;;26.50;63.00;;;;;;4756764;55;21072;-32
2022/08/30 05:40:48;;;;;;;13.98;11.38;;;26.50;63.00;;;;;;4756515;55;21008;-30
2022/08/30 05:45:58;;;;;;;12.48;11.27;;;26.50;63.00;;;;;;4736595;59;21538;-28
2022/08/30 05:51:11;;;;;;;12.70;11.38;;;26.50;63.00;;;;;;4759666;55;21974;-25
2022/08/30 05:56:14;;;;;;;12.10;11.00;;;26.50;63.10;;;;;;4758844;55;20983;-26
2022/08/30 06:01:54;;;;;;;13.13;11.82;;;26.40;62.90;;;;;;4756532;55;20992;-29
2022/08/30 06:06:55;;;;;;;12.60;11.38;;;26.50;63.00;;;;;;4798011;55;21008;-28
2022/08/30 06:11:56;;;;;;;12.15;10.95;;;26.50;63.00;;;;;;4762792;55;21063;-28
2022/08/30 06:16:57;;;;;;;13.23;11.85;;;26.40;62.90;;;;;;4770900;55;21523;-30
2022/08/30 06:21:59;;;;;;;13.15;11.95;;;26.50;62.90;;;;;;4739905;55;21068;-27
2022/08/30 06:27:00;;;;;;;12.90;11.65;;;26.40;62.90;;;;;;4744659;55;21456;-27
2022/08/30 06:32:01;;;;;;;12.73;11.52;;;26.40;62.90;;;;;;4750085;55;21036;-31
2022/08/30 06:37:02;;;;;;;12.57;11.27;;;26.40;62.80;;;;;;4747849;55;21500;-30
2022/08/30 06:42:04;;;;;;;11.95;10.75;;;26.50;62.90;;;;;;4764812;55;22170;-27
2022/08/30 06:47:05;;;;;;;21.10;11.75;;;26.40;62.80;;;;;;4769575;55;21012;-33
2022/08/30 06:52:06;;;;;;;13.75;12.35;;;26.50;62.60;;;;;;4745819;55;21548;-29
2022/08/30 06:57:07;;;;;;;15.23;12.23;;;26.40;62.70;;;;;;4743266;55;21008;-29
2022/08/30 07:02:07;;;;;;;14.20;12.25;;;26.40;62.50;;;;;;4745207;55;21019;-28
2022/08/30 07:07:10;;;;;;;14.07;12.57;;;26.40;62.60;;;;;;4736065;55;21391;-30
2022/08/30 07:12:12;;;;;;;15.68;13.30;;;26.40;62.60;;;;;;4751882;55;20983;-31
2022/08/30 07:22:33;;;;;;;14.70;13.23;;;26.40;62.50;;;;;;4742654;55;21078;-26
2022/08/30 07:27:34;;;;;;;17.80;14.70;;;26.40;62.40;;;;;;4765628;55;20996;-30
2022/08/30 07:32:34;;;;;;;16.92;15.13;;;26.40;62.40;;;;;;4738655;55;21055;-35
2022/08/30 07:37:36;;;;;;;18.08;15.13;;;26.40;62.40;;;;;;4736262;55;22146;-28
2022/08/30 07:42:36;;;;;;;20.37;16.45;;;26.40;62.30;;;;;;4752340;55;21533;-33
2022/08/30 07:47:38;;;;;;;21.08;16.65;;;26.40;62.30;;;;;;4736272;59;20997;-31
2022/08/30 07:52:38;;;;;;;21.70;18.48;;;26.40;62.40;;;;;;4736561;59;21007;-28
2022/08/30 07:57:39;;;;;;;22.37;19.15;;;26.40;62.30;;;;;;4756930;55;20999;-26
2022/08/30 08:02:41;;;;;;;37.40;27.60;;;26.50;62.30;;;;;;4740012;55;21011;-34
2022/08/30 08:07:42;;;;;;;62.15;41.85;;;26.40;62.00;;;;;;4758815;55;21635;-30
2022/08/30 08:12:43;;;;;;;58.80;40.58;;;26.40;61.60;;;;;;4767435;55;21019;-26
2022/08/30 08:17:43;;;;;;;59.88;38.53;;;26.40;61.60;;;;;;4785185;55;21003;-28
2022/08/30 08:22:45;;;;;;;60.20;39.30;;;26.30;61.70;;;;;;4747959;55;20999;-29
2022/08/30 08:27:50;;;;;;;64.07;46.15;;;26.40;61.70;;;;;;4759758;55;20984;-30
2022/08/30 08:32:51;;;;;;;64.47;47.03;;;26.40;61.90;;;;;;4737121;55;21970;-35
2022/08/30 08:37:52;;;;;;;72.35;46.72;;;26.40;62.10;;;;;;4761909;55;21422;-35
2022/08/30 08:43:10;;;;;;;62.62;39.70;;;26.40;62.30;;;;;;4740191;55;21028;-37
2022/08/30 08:48:56;;;;;;;57.22;38.92;;;26.50;62.10;;;;;;4750784;55;21660;-28
2022/08/30 08:54:07;;;;;;;59.47;38.77;;;26.40;62.00;;;;;;4736963;59;21052;-25
2022/08/30 08:59:10;;;;;;;67.32;41.40;;;26.50;62.30;;;;;;4807372;55;21020;-30
2022/08/30 09:04:16;;;;;;;64.50;41.58;;;26.50;62.30;;;;;;4751698;55;21477;-28
2022/08/30 09:09:21;;;;;;;68.22;40.20;;;26.50;62.30;;;;;;4736583;59;21469;-31
2022/08/30 09:14:28;;;;;;;65.78;41.10;;;26.50;62.20;;;;;;4749820;55;21003;-28
2022/08/30 09:20:13;;;;;;;62.60;37.65;;;26.60;62.30;;;;;;4762642;55;20988;-30
2022/08/30 09:25:28;;;;;;;56.35;37.53;;;26.60;62.60;;;;;;4765878;55;21564;-31
2022/08/30 09:30:30;;;;;;;55.47;37.00;;;26.70;62.50;;;;;;4778451;55;20998;-31
2022/08/30 09:36:18;;;;;;;51.83;35.92;;;26.70;62.30;;;;;;4766741;55;21058;-30
2022/08/30 09:41:40;;;;;;;49.88;35.13;;;26.70;62.30;;;;;;4775531;55;21476;-31
2022/08/30 09:47:00;;;;;;;51.83;34.13;;;26.70;62.20;;;;;;4740487;55;21465;-34
2022/08/30 09:53:20;;;;;;;46.42;32.75;;;26.70;62.10;;;;;;4736557;59;20980;-30
2022/08/30 09:58:50;;;;;;;45.55;32.08;;;26.80;62.10;;;;;;4762781;55;21011;-30
2022/08/30 10:04:22;;;;;;;44.92;29.80;;;26.80;62.30;;;;;;4747642;55;21051;-32
2022/08/30 10:11:02;;;;;;;43.50;29.87;;;26.80;62.50;;;;;;4741169;55;20976;-29
2022/08/30 10:17:40;;;;;;;42.10;29.60;;;26.80;62.70;;;;;;4777252;55;21019;-32
2022/08/30 10:22:46;;;;;;;44.50;30.60;;;26.80;62.70;;;;;;4744826;55;21584;-27
2022/08/30 10:27:55;;;;;;;43.10;31.63;;;26.80;62.80;;;;;;4743606;55;20992;-30
2022/08/30 10:33:29;;;;;;;47.72;31.80;;;26.80;63.00;;;;;;4735877;59;21011;-31
2022/08/30 10:38:33;;;;;;;45.15;30.62;;;26.80;63.30;;;;;;4744966;55;21505;-29
2022/08/30 10:44:01;;;;;;;38.28;28.70;;;26.90;63.50;;;;;;4766677;55;20980;-28
2022/08/30 10:49:07;;;;;;;39.33;27.20;;;26.90;63.70;;;;;;4757024;55;21578;-31
2022/08/30 10:54:47;;;;;;;37.75;28.45;;;26.90;64.00;;;;;;4738933;55;21043;-37
2022/08/30 10:59:55;;;;;;;53.47;38.75;;;26.90;64.40;;;;;;4735597;59;21616;-29
2022/08/30 11:08:13;;;;;;;51.42;37.53;;;26.90;65.00;;;;;;4766021;55;21071;-27
2022/08/30 11:13:22;;;;;;;63.83;46.95;;;26.90;65.00;;;;;;4790535;55;21560;-34
2022/08/30 11:18:24;;;;;;;57.33;43.17;;;26.90;65.30;;;;;;4757861;55;20996;-34
2022/08/30 11:23:31;;;;;;;48.75;39.03;;;26.90;65.80;;;;;;4736580;59;21024;-28
2022/08/30 11:29:34;;;;;;;49.58;38.90;;;26.90;65.70;;;;;;4751529;55;21186;-36
2022/08/30 11:37:36;;;;;;;40.55;31.92;;;26.90;66.10;;;;;;4742656;55;21036;-27
2022/08/30 11:42:45;;;;;;;31.80;25.00;;;26.90;65.70;;;;;;4792365;55;21560;-26
2022/08/30 11:47:49;;;;;;;31.17;22.13;;;26.90;65.00;;;;;;4748494;55;21035;-33
2022/08/30 11:53:06;;;;;;;28.10;20.10;;;26.90;65.40;;;;;;4759266;55;21640;-29
2022/08/30 11:58:24;;;;;;;24.15;20.05;;;26.90;65.30;;;;;;4761232;55;20995;-32
2022/08/30 12:03:32;;;;;;;22.02;19.23;;;26.90;65.70;;;;;;4739854;55;20979;-32
2022/08/30 12:08:42;;;;;;;24.12;18.70;;;26.90;65.80;;;;;;4740411;55;21143;-33
2022/08/30 12:13:54;;;;;;;27.15;20.67;;;26.90;66.10;;;;;;4735275;59;20987;-34
2022/08/30 12:18:59;;;;;;;24.90;19.83;;;26.90;65.10;;;;;;4735334;59;21075;-30
2022/08/30 12:24:22;;;;;;;25.65;20.10;;;27.00;65.30;;;;;;4736967;55;22265;-35
2022/08/30 12:29:26;;;;;;;25.10;19.35;;;27.00;65.20;;;;;;4767528;55;21031;-31
2022/08/30 12:36:02;;;;;;;28.02;21.58;;;27.00;65.10;;;;;;4787470;55;20999;-34
2022/08/30 12:41:03;;;;;;;28.55;21.20;;;27.00;65.10;;;;;;4740596;55;21091;-29
2022/08/30 12:46:10;;;;;;;22.40;20.05;;;27.00;64.90;;;;;;4736339;59;21055;-34
2022/08/30 12:51:39;;;;;;;24.48;21.80;;;27.00;64.90;;;;;;4764706;55;21023;-32
2022/08/30 12:57:06;;;;;;;29.35;21.05;;;27.00;64.90;;;;;;4734935;59;21622;-27
2022/08/30 13:02:16;;;;;;;24.55;20.17;;;27.00;64.80;;;;;;4784168;55;21119;-27
2022/08/30 13:07:30;;;;;;;29.87;22.77;;;27.00;65.00;;;;;;4743364;55;21003;-27
2022/08/30 13:12:31;;;;;;;32.92;20.27;;;27.00;65.20;;;;;;4739151;55;21015;-28
2022/08/30 13:17:31;;;;;;;31.30;19.70;;;27.00;66.00;;;;;;4751444;55;21070;-27
2022/08/30 13:22:59;;;;;;;27.17;17.27;;;27.00;66.10;;;;;;4741348;55;21047;-32
2022/08/30 13:28:02;;;;;;;28.35;20.10;;;27.00;66.40;;;;;;4741758;55;21087;-28
2022/08/30 13:33:03;;;;;;;27.98;20.20;;;27.00;66.70;;;;;;4750459;55;21035;-35
2022/08/30 13:38:03;;;;;;;21.87;18.58;;;26.90;66.60;;;;;;4736958;55;21091;-34
2022/08/30 13:43:04;;;;;;;21.27;17.50;;;26.90;66.60;;;;;;4741283;55;21000;-33
2022/08/30 13:48:06;;;;;;;18.17;15.15;;;26.90;67.10;;;;;;4739906;55;21528;-35
2022/08/30 13:53:07;;;;;;;22.58;17.25;;;26.90;66.50;;;;;;4749700;55;20995;-34
2022/08/30 13:58:09;;;;;;;19.83;16.77;;;26.90;66.30;;;;;;4740560;55;21500;-36
2022/08/30 14:03:09;;;;;;;22.02;15.80;;;26.90;66.40;;;;;;4755740;55;20988;-36
2022/08/30 14:08:12;;;;;;;22.92;17.30;;;27.00;67.00;;;;;;4735616;59;21075;-29
2022/08/30 14:13:13;;;;;;;25.73;21.00;;;27.00;66.50;;;;;;4754562;55;21063;-34
2022/08/30 14:18:14;;;;;;;44.38;29.02;;;27.00;66.50;;;;;;4742601;55;21011;-31
2022/08/30 14:23:15;;;;;;;32.97;23.80;;;26.90;65.80;;;;;;4747452;55;21039;-33
2022/08/30 14:28:15;;;;;;;37.40;25.40;;;27.00;66.00;;;;;;4737484;55;21441;-34
2022/08/30 14:33:16;;;;;;;33.35;26.45;;;27.00;65.90;;;;;;4735005;55;21026;-35
2022/08/30 14:38:17;;;;;;;33.38;25.35;;;27.00;65.80;;;;;;4746342;55;21730;-34
2022/08/30 14:43:18;;;;;;;31.90;25.40;;;27.00;65.90;;;;;;4742106;55;20990;-29
2022/08/30 14:48:19;;;;;;;33.08;26.35;;;26.90;65.80;;;;;;4741598;55;20992;-30
2022/08/30 14:53:20;;;;;;;34.42;26.17;;;27.00;65.90;;;;;;4737157;55;20972;-32
2022/08/30 14:58:20;;;;;;;31.90;26.00;;;26.90;65.90;;;;;;4735474;59;20999;-36
2022/08/30 15:03:22;;;;;;;28.42;25.30;;;26.90;65.90;;;;;;4764327;55;21564;-36
2022/08/30 15:08:23;;;;;;;30.80;24.80;;;26.90;66.00;;;;;;4766931;55;21044;-34
2022/08/30 15:13:25;;;;;;;31.05;24.73;;;26.90;66.00;;;;;;4736409;59;20983;-27
2022/08/30 15:18:25;;;;;;;29.23;25.48;;;26.90;66.00;;;;;;4774972;55;21505;-31
2022/08/30 15:23:26;;;;;;;29.75;24.48;;;26.90;66.10;;;;;;4743773;55;21000;-28
2022/08/30 15:28:27;;;;;;;27.48;23.80;;;26.90;66.10;;;;;;4739642;55;20995;-26
2022/08/30 15:33:28;;;;;;;28.02;24.08;;;26.90;66.10;;;;;;4779317;55;21512;-31
2022/08/30 15:38:29;;;;;;;27.60;23.83;;;26.80;66.00;;;;;;4749217;55;21000;-26
2022/08/30 15:43:30;;;;;;;29.25;23.42;;;26.80;66.10;;;;;;4744434;55;21048;-28
2022/08/30 15:48:31;;;;;;;25.83;22.42;;;26.80;66.00;;;;;;4744952;55;21115;-37
2022/08/30 15:53:32;;;;;;;27.33;23.10;;;26.80;66.00;;;;;;4757004;55;21034;-32
2022/08/30 15:58:33;;;;;;;25.67;22.48;;;26.80;66.00;;;;;;4748376;55;21020;-29
2022/08/30 16:03:35;;;;;;;25.60;22.48;;;26.80;66.00;;;;;;4743524;55;21468;-27
2022/08/30 16:08:36;;;;;;;29.10;22.62;;;26.80;66.10;;;;;;4735693;59;21004;-31
2022/08/30 16:13:37;;;;;;;26.33;23.10;;;26.80;66.00;;;;;;4763383;55;21860;-37
2022/08/30 16:18:38;;;;;;;24.17;21.58;;;26.80;66.00;;;;;;4742926;55;21015;-30
2022/08/30 16:23:41;;;;;;;25.75;22.23;;;26.80;66.10;;;;;;4741908;55;20996;-32
2022/08/30 16:28:43;;;;;;;26.08;22.83;;;26.80;66.00;;;;;;4735956;59;21094;-39
2022/08/30 16:33:44;;;;;;;25.67;21.87;;;26.80;66.00;;;;;;4765121;55;21059;-36
2022/08/30 16:38:45;;;;;;;24.00;21.15;;;26.80;66.00;;;;;;4739085;55;21100;-27
2022/08/30 16:43:46;;;;;;;24.70;21.00;;;26.80;66.00;;;;;;4739297;55;21007;-37
2022/08/30 16:48:47;;;;;;;24.98;21.05;;;26.80;66.00;;;;;;4739077;55;21059;-31
2022/08/30 16:53:49;;;;;;;24.40;21.55;;;26.80;66.00;;;;;;4744147;55;21051;-28
2022/08/30 16:58:50;;;;;;;26.08;21.67;;;26.80;66.00;;;;;;4739416;55;21038;-32
2022/08/30 17:03:51;;;;;;;24.42;21.83;;;26.80;66.00;;;;;;4743534;55;21099;-33
2022/08/30 17:08:52;;;;;;;24.80;20.70;;;26.80;66.50;;;;;;4743394;55;21007;-32
2022/08/30 17:13:53;;;;;;;24.83;21.58;;;26.80;66.00;;;;;;4741661;55;20994;-25
2022/08/30 17:18:55;;;;;;;24.73;21.50;;;26.80;66.00;;;;;;4758407;55;21461;-34
2022/08/30 17:23:57;;;;;;;23.02;20.65;;;26.80;66.00;;;;;;4749045;55;20955;-37
2022/08/30 17:28:58;;;;;;;25.27;21.12;;;26.80;66.00;;;;;;4736094;59;20999;-35
2022/08/30 17:34:01;;;;;;;23.10;20.70;;;26.80;66.00;;;;;;4768906;55;21055;-35
2022/08/30 17:39:04;;;;;;;22.67;20.30;;;26.80;66.00;;;;;;4768910;55;21549;-35
2022/08/30 17:44:05;;;;;;;22.70;20.30;;;26.80;66.00;;;;;;4765688;55;21095;-36
2022/08/30 17:49:05;;;;;;;23.17;20.55;;;26.80;65.90;;;;;;4751265;55;21027;-34
2022/08/30 17:54:06;;;;;;;21.70;19.48;;;26.80;66.00;;;;;;4742836;55;21557;-26
2022/08/30 17:59:09;;;;;;;22.60;20.10;;;26.80;65.90;;;;;;4740866;55;21606;-28
2022/08/30 18:04:12;;;;;;;22.25;19.75;;;26.80;65.90;;;;;;4737902;55;21062;-36
2022/08/30 18:09:13;;;;;;;23.15;20.67;;;26.80;66.00;;;;;;4789479;55;21007;-28
2022/08/30 18:14:15;;;;;;;21.75;19.45;;;26.80;66.00;;;;;;4736635;59;21476;-36
2022/08/30 18:19:19;;;;;;;22.25;18.95;;;26.80;66.00;;;;;;4777307;55;21134;-26
2022/08/30 18:24:21;;;;;;;22.05;19.75;;;26.80;66.00;;;;;;4736711;59;21075;-36
2022/08/30 18:29:22;;;;;;;23.92;19.12;;;26.80;66.00;;;;;;4736265;59;21098;-34
2022/08/30 18:34:23;;;;;;;22.02;19.62;;;26.80;66.00;;;;;;4813970;55;21007;-36
2022/08/30 18:39:25;;;;;;;21.67;18.83;;;26.80;66.00;;;;;;4798968;55;21969;-30
2022/08/30 18:44:26;;;;;;;22.85;19.00;;;26.80;66.00;;;;;;4736023;59;21107;-34
2022/08/30 18:49:28;;;;;;;22.60;19.92;;;26.80;66.00;;;;;;4736539;55;20999;-34
2022/08/30 18:54:29;;;;;;;21.60;19.15;;;26.80;66.00;;;;;;4751723;55;21062;-32
2022/08/30 18:59:30;;;;;;;23.92;19.23;;;26.80;66.00;;;;;;4776936;55;21023;-36
2022/08/30 19:04:32;;;;;;;20.02;17.90;;;26.80;66.00;;;;;;4857622;55;21478;-31
2022/08/30 19:09:34;;;;;;;20.98;18.73;;;26.70;66.10;;;;;;4819868;55;21489;-32
2022/08/30 19:14:35;;;;;;;22.42;19.30;;;26.80;66.10;;;;;;4768565;55;21036;-28
2022/08/30 19:19:36;;;;;;;19.45;17.42;;;26.70;66.00;;;;;;4777235;55;20999;-32
2022/08/30 19:24:37;;;;;;;19.77;17.67;;;26.70;66.00;;;;;;4736330;59;20995;-31
2022/08/30 19:29:38;;;;;;;20.55;18.42;;;26.70;66.00;;;;;;4741308;55;21480;-30
2022/08/30 19:34:39;;;;;;;20.10;18.02;;;26.80;66.10;;;;;;4750241;55;20988;-37
2022/08/30 19:39:41;;;;;;;20.35;18.25;;;26.80;66.10;;;;;;4787101;55;21032;-35
2022/08/30 19:44:41;;;;;;;19.50;17.45;;;26.70;66.00;;;;;;4750492;55;21485;-30
2022/08/30 19:49:42;;;;;;;19.50;17.17;;;26.70;66.70;;;;;;4750213;55;21019;-33
2022/08/30 19:54:43;;;;;;;19.73;17.58;;;26.80;66.10;;;;;;4750342;55;21028;-32
2022/08/30 19:59:44;;;;;;;19.95;17.02;;;26.70;66.00;;;;;;4742445;55;21012;-29
2022/08/30 20:04:45;;;;;;;18.95;17.05;;;26.70;66.00;;;;;;4758338;55;21505;-32
2022/08/30 20:09:47;;;;;;;20.30;18.00;;;26.70;66.00;;;;;;4807490;55;20999;-35
2022/08/30 20:14:48;;;;;;;19.90;17.80;;;26.70;66.00;;;;;;4775081;55;21512;-34
2022/08/30 20:19:49;;;;;;;18.75;16.45;;;26.70;66.10;;;;;;4749277;55;21004;-35
2022/08/30 20:24:50;;;;;;;19.33;16.67;;;26.70;66.00;;;;;;4749060;55;20999;-32
2022/08/30 20:29:51;;;;;;;18.35;16.37;;;26.70;66.00;;;;;;4755095;55;20995;-32
2022/08/30 20:34:52;;;;;;;20.65;16.83;;;26.70;66.00;;;;;;4738321;55;21611;-30
2022/08/30 20:39:58;;;;;;;18.55;16.60;;;26.70;66.10;;;;;;4776398;55;21509;-35
2022/08/30 20:44:59;;;;;;;18.17;16.15;;;26.70;66.00;;;;;;4745079;55;21553;-36
2022/08/30 20:50:00;;;;;;;19.25;16.48;;;26.70;66.00;;;;;;4769297;55;21043;-38
2022/08/30 20:55:03;;;;;;;16.73;15.02;;;26.70;66.00;;;;;;4780905;55;21098;-34
2022/08/30 21:00:10;;;;;;;18.58;16.58;;;26.70;66.00;;;;;;4745819;55;21533;-40
2022/08/30 21:05:14;;;;;;;17.80;15.75;;;26.70;65.90;;;;;;4736062;59;21035;-37
2022/08/30 21:10:16;;;;;;;16.30;14.60;;;26.70;65.90;;;;;;4741438;55;21047;-32
2022/08/30 21:15:17;;;;;;;16.12;14.52;;;26.70;65.90;;;;;;4747961;55;21453;-41
2022/08/30 21:20:18;;;;;;;16.62;14.68;;;26.70;65.90;;;;;;4775499;55;21011;-38
2022/08/30 21:25:18;;;;;;;16.98;15.18;;;26.70;65.90;;;;;;4752732;55;21004;-31
2022/08/30 21:30:19;;;;;;;17.17;15.38;;;26.70;65.90;;;;;;4735780;59;21079;-36
2022/08/30 21:40:40;;;;;;;17.30;15.50;;;26.70;66.60;;;;;;4734941;55;21108;-27
2022/08/30 21:45:42;;;;;;;16.62;14.90;;;26.70;65.90;;;;;;4761071;55;21022;-29
2022/08/30 21:50:44;;;;;;;16.33;14.60;;;26.70;65.80;;;;;;4764236;55;21039;-25
2022/08/30 21:55:45;;;;;;;15.68;14.05;;;26.70;65.90;;;;;;4783289;55;21504;-28
2022/08/30 22:00:46;;;;;;;16.73;14.07;;;26.70;65.90;;;;;;4735822;59;21003;-37
2022/08/30 22:05:52;;;;;;;15.98;14.27;;;26.70;65.80;;;;;;4762621;55;21657;-34
2022/08/30 22:10:53;;;;;;;15.65;14.05;;;26.70;65.80;;;;;;4736724;59;20994;-33
2022/08/30 22:15:54;;;;;;;15.32;13.73;;;26.60;65.70;;;;;;4775214;55;20982;-39
2022/08/30 22:20:55;;;;;;;15.50;13.85;;;26.70;65.70;;;;;;4738704;55;21046;-31
2022/08/30 22:25:58;;;;;;;16.25;14.57;;;26.60;65.70;;;;;;4738834;55;21473;-32
2022/08/30 22:31:03;;;;;;;14.80;13.30;;;26.60;65.60;;;;;;4804161;55;21019;-32
2022/08/30 22:36:11;;;;;;;15.23;13.63;;;26.70;65.70;;;;;;4754831;55;21039;-36
2022/08/30 22:41:16;;;;;;;14.38;12.73;;;26.60;65.60;;;;;;4747249;55;21849;-34
2022/08/30 22:46:18;;;;;;;14.95;13.18;;;26.60;65.60;;;;;;4748717;55;21043;-38
2022/08/30 22:51:21;;;;;;;13.48;12.18;;;26.70;65.70;;;;;;4791834;55;20999;-30
2022/08/30 22:56:24;;;;;;;15.15;13.27;;;26.60;65.60;;;;;;4759357;55;21501;-27
2022/08/30 23:01:28;;;;;;;15.00;13.45;;;26.60;65.60;;;;;;4780754;55;21015;-36
2022/08/30 23:06:30;;;;;;;14.40;12.90;;;26.70;65.70;;;;;;4770892;55;21011;-36
2022/08/30 23:11:33;;;;;;;14.43;12.95;;;26.70;65.80;;;;;;4793623;55;21063;-30
2022/08/30 23:16:34;;;;;;;13.52;12.13;;;26.70;65.60;;;;;;4789063;55;21580;-28
2022/08/30 23:21:35;;;;;;;14.68;12.82;;;26.60;65.60;;;;;;4758512;55;21517;-33
